createdAt,value
2022-10-18T00:00:04.457Z,101068.88
2022-10-18T00:02:38.034Z,101075.44
2022-10-18T00:05:12.760Z,101068.69
2022-10-18T00:07:46.429Z,101067.81
2022-10-18T00:10:24.994Z,101070.00
2022-10-18T00:12:58.790Z,101064.00
2022-10-18T00:15:32.067Z,101059.91
2022-10-18T00:18:05.710Z,101064.38
2022-10-18T00:20:40.328Z,101055.91
2022-10-18T00:23:14.133Z,101059.53
2022-10-18T00:25:47.673Z,101059.88
2022-10-18T00:28:20.935Z,101060.28
2022-10-18T00:30:54.610Z,101057.53
2022-10-18T00:33:27.836Z,101048.16
2022-10-18T00:36:03.454Z,101049.22
2022-10-18T00:38:37.455Z,101041.47
2022-10-18T00:41:13.303Z,101040.03
2022-10-18T00:43:57.476Z,101031.22
2022-10-18T00:46:33.492Z,101029.84
2022-10-18T00:49:13.229Z,101036.78
2022-10-18T00:51:51.647Z,101036.09
2022-10-18T00:54:26.164Z,101025.56
2022-10-18T00:57:00.237Z,101022.13
2022-10-18T00:59:34.416Z,101031.09
2022-10-18T01:02:08.440Z,101029.34
2022-10-18T01:04:42.073Z,101027.50
2022-10-18T01:07:22.004Z,101024.03
2022-10-18T01:10:01.555Z,101025.41
2022-10-18T01:12:46.411Z,101031.66
2022-10-18T01:15:27.600Z,101040.63
2022-10-18T01:18:09.441Z,101028.09
2022-10-18T01:21:10.547Z,101022.38
2022-10-18T01:24:19.709Z,101028.53
2022-10-18T01:27:16.119Z,101020.63
2022-10-18T01:30:05.337Z,101019.84
2022-10-18T01:32:44.206Z,101026.25
2022-10-18T01:35:23.334Z,101015.69
2022-10-18T01:38:00.867Z,101018.47
2022-10-18T01:40:36.645Z,101015.88
2022-10-18T01:43:12.135Z,101016.78
2022-10-18T01:45:45.913Z,101022.16
2022-10-18T01:48:21.539Z,101014.16
2022-10-18T01:50:55.370Z,101010.63
2022-10-18T01:53:31.659Z,101010.72
2022-10-18T01:56:34.040Z,101011.41
2022-10-18T01:59:25.165Z,101003.50
2022-10-18T02:02:11.063Z,101002.72
2022-10-18T02:04:52.407Z,101008.19
2022-10-18T02:07:32.960Z,101001.81
2022-10-18T02:10:12.236Z,101001.75
2022-10-18T02:12:48.164Z,100996.34
2022-10-18T02:15:28.205Z,100996.25
2022-10-18T02:18:04.909Z,101007.03
2022-10-18T02:20:40.561Z,101006.09
2022-10-18T02:23:16.587Z,101005.25
2022-10-18T02:25:50.544Z,101006.09
2022-10-18T02:31:08.471Z,101009.66
2022-10-18T02:33:52.906Z,101006.94
2022-10-18T02:36:33.073Z,101000.78
2022-10-18T02:39:14.540Z,101001.66
2022-10-18T02:41:48.799Z,101002.63
2022-10-18T02:44:22.663Z,100998.28
2022-10-18T02:46:56.875Z,101009.13
2022-10-18T02:49:30.561Z,101008.34
2022-10-18T02:52:05.987Z,101010.28
2022-10-18T02:54:39.682Z,101016.53
2022-10-18T02:57:12.965Z,101009.66
2022-10-18T02:59:46.635Z,101012.97
2022-10-18T03:02:19.997Z,101016.88
2022-10-18T03:04:53.551Z,101011.41
2022-10-18T03:07:28.951Z,100997.41
2022-10-18T03:10:02.720Z,101007.38
2022-10-18T03:12:36.012Z,101001.31
2022-10-18T03:15:10.242Z,101003.81
2022-10-18T03:17:44.252Z,101001.41
2022-10-18T03:20:18.067Z,100991.69
2022-10-18T03:22:52.817Z,100996.44
2022-10-18T03:25:26.642Z,101005.31
2022-10-18T03:28:00.402Z,100999.22
2022-10-18T03:30:33.626Z,101005.75
2022-10-18T03:33:07.396Z,101006.50
2022-10-18T03:35:40.721Z,101003.22
2022-10-18T03:38:15.828Z,101004.88
2022-10-18T03:40:49.463Z,100999.66
2022-10-18T03:43:22.994Z,101000.88
2022-10-18T03:45:57.050Z,101001.53
2022-10-18T03:48:30.861Z,101008.06
2022-10-18T03:51:04.532Z,101005.53
2022-10-18T03:53:39.639Z,101014.56
2022-10-18T03:56:13.256Z,101014.63
2022-10-18T03:58:46.557Z,101003.28
2022-10-18T04:01:20.196Z,100994.16
2022-10-18T04:03:55.412Z,101004.19
2022-10-18T04:06:29.108Z,101009.66
2022-10-18T04:09:06.513Z,101009.94
2022-10-18T04:11:43.152Z,101006.13
2022-10-18T04:14:16.728Z,100994.66
2022-10-18T04:16:50.302Z,101000.22
2022-10-18T04:19:23.634Z,101009.41
2022-10-18T04:21:57.294Z,101014.50
2022-10-18T04:24:32.018Z,101012.19
2022-10-18T04:27:06.170Z,101000.38
2022-10-18T04:29:39.910Z,100998.78
2022-10-18T04:32:13.576Z,101005.22
2022-10-18T04:34:46.896Z,101013.66
2022-10-18T04:37:20.479Z,101005.31
2022-10-18T04:39:55.495Z,101000.94
2022-10-18T04:42:29.233Z,101010.06
2022-10-18T04:45:02.515Z,101007.75
2022-10-18T04:47:36.276Z,101003.94
2022-10-18T04:50:10.017Z,100999.03
2022-10-18T04:52:43.727Z,101007.84
2022-10-18T04:55:18.885Z,101005.41
2022-10-18T04:57:52.466Z,101002.88
2022-10-18T05:00:26.117Z,101003.72
2022-10-18T05:02:59.375Z,101002.16
2022-10-18T05:05:49.924Z,101001.94
2022-10-18T05:08:26.610Z,100996.63
2022-10-18T05:11:02.134Z,100995.81
2022-10-18T05:13:35.787Z,101008.34
2022-10-18T05:16:09.114Z,101005.78
2022-10-18T05:18:43.242Z,101013.56
2022-10-18T05:21:17.917Z,101010.94
2022-10-18T05:23:51.508Z,101009.19
2022-10-18T05:26:26.592Z,101008.25
2022-10-18T05:29:00.354Z,101013.47
2022-10-18T05:31:34.134Z,101021.47
2022-10-18T05:34:07.410Z,101019.78
2022-10-18T05:36:41.076Z,101020.25
2022-10-18T05:39:14.337Z,101014.06
2022-10-18T05:41:49.372Z,101010.13
2022-10-18T05:44:23.205Z,101013.69
2022-10-18T05:46:56.481Z,101015.66
2022-10-18T05:49:30.029Z,101027.69
2022-10-18T05:52:03.702Z,101022.28
2022-10-18T05:54:36.984Z,101021.41
2022-10-18T05:57:12.187Z,101026.13
2022-10-18T05:59:48.380Z,101024.94
2022-10-18T06:02:33.020Z,101027.22
2022-10-18T06:05:07.118Z,101026.09
2022-10-18T06:07:43.206Z,101030.13
2022-10-18T06:10:17.083Z,101030.47
2022-10-18T06:12:55.117Z,101036.31
2022-10-18T06:15:28.827Z,101033.88
2022-10-18T06:18:02.454Z,101042.38
2022-10-18T06:20:35.810Z,101043.91
2022-10-18T06:23:09.643Z,101049.31
2022-10-18T06:25:43.277Z,101050.78
2022-10-18T06:28:17.999Z,101050.56
2022-10-18T06:30:51.661Z,101052.59
2022-10-18T06:33:25.116Z,101054.13
2022-10-18T06:36:00.576Z,101047.34
2022-10-18T06:38:34.917Z,101050.75
2022-10-18T06:41:09.911Z,101052.22
2022-10-18T06:43:45.112Z,101050.91
2022-10-18T06:46:18.769Z,101050.31
2022-10-18T06:48:52.398Z,101046.31
2022-10-18T06:51:25.833Z,101044.16
2022-10-18T06:54:16.841Z,101044.34
2022-10-18T06:56:51.845Z,101043.88
2022-10-18T06:59:28.982Z,101035.38
2022-10-18T07:02:07.241Z,101038.16
2022-10-18T07:04:45.667Z,101030.44
2022-10-18T07:07:22.687Z,101035.00
2022-10-18T07:09:58.565Z,101040.47
2022-10-18T07:12:32.346Z,101035.44
2022-10-18T07:15:09.790Z,101035.34
2022-10-18T07:17:45.346Z,101040.81
2022-10-18T07:20:19.065Z,101034.34
2022-10-18T07:22:56.971Z,101037.34
2022-10-18T07:25:30.695Z,101044.38
2022-10-18T07:28:04.419Z,101037.06
2022-10-18T07:30:39.914Z,101047.31
2022-10-18T07:33:14.948Z,101032.28
2022-10-18T07:35:48.537Z,101031.78
2022-10-18T07:38:22.943Z,101014.44
2022-10-18T07:40:58.713Z,101019.31
2022-10-18T07:43:32.495Z,101015.78
2022-10-18T07:46:07.772Z,101013.09
2022-10-18T07:48:41.665Z,101023.78
2022-10-18T07:51:15.857Z,101012.72
2022-10-18T07:53:49.829Z,101014.63
2022-10-18T07:56:23.521Z,101020.00
2022-10-18T07:58:58.447Z,101013.03
2022-10-18T08:01:36.178Z,101000.28
2022-10-18T08:04:13.979Z,101001.44
2022-10-18T08:06:49.842Z,100998.50
2022-10-18T08:09:23.445Z,100996.09
2022-10-18T08:12:00.073Z,100997.72
2022-10-18T08:14:33.801Z,101000.38
2022-10-18T08:17:08.883Z,101009.34
2022-10-18T08:19:52.903Z,101015.22
2022-10-18T08:22:37.949Z,101007.97
2022-10-18T08:25:11.732Z,100997.34
2022-10-18T08:27:45.406Z,100996.81
2022-10-18T08:30:19.187Z,101003.84
2022-10-18T08:32:54.498Z,100991.09
2022-10-18T08:35:28.086Z,100991.47
2022-10-18T08:38:01.788Z,100989.03
2022-10-18T08:40:36.031Z,100983.66
2022-10-18T08:43:21.598Z,100985.88
2022-10-18T08:46:03.974Z,100987.16
2022-10-18T08:48:43.630Z,100992.19
2022-10-18T08:51:23.418Z,100999.19
2022-10-18T08:54:04.551Z,100997.97
2022-10-18T08:56:40.103Z,100996.13
2022-10-18T08:59:14.809Z,100990.28
2022-10-18T09:02:01.086Z,100996.38
2022-10-18T09:04:48.541Z,100988.59
2022-10-18T09:07:39.648Z,100978.00
2022-10-18T09:10:21.663Z,100983.22
2022-10-18T09:13:15.714Z,100989.72
2022-10-18T09:15:53.491Z,100985.03
2022-10-18T09:18:47.527Z,100987.50
2022-10-18T09:21:28.118Z,100988.34
2022-10-18T09:24:13.187Z,100986.91
2022-10-18T09:26:48.677Z,100984.78
2022-10-18T09:29:41.871Z,100978.78
2022-10-18T09:32:28.877Z,100974.97
2022-10-18T09:35:13.439Z,100976.06
2022-10-18T09:37:49.889Z,100966.75
2022-10-18T09:40:28.572Z,100956.66
2022-10-18T09:43:07.756Z,100958.91
2022-10-18T09:45:44.451Z,100956.16
2022-10-18T09:48:23.706Z,100957.09
2022-10-18T09:51:02.182Z,100960.31
2022-10-18T09:53:44.562Z,100950.13
2022-10-18T09:56:24.015Z,100949.06
2022-10-18T09:58:57.699Z,100942.75
2022-10-18T10:01:33.490Z,100944.56
2022-10-18T10:04:07.010Z,100941.19
2022-10-18T10:06:51.470Z,100935.63
2022-10-18T10:09:29.794Z,100932.69
2022-10-18T10:12:03.335Z,100924.03
2022-10-18T10:14:45.545Z,100916.94
2022-10-18T10:17:25.241Z,100910.00
2022-10-18T10:20:03.926Z,100915.34
2022-10-18T10:22:40.249Z,100912.22
2022-10-18T10:25:24.923Z,100911.03
2022-10-18T10:28:04.470Z,100905.88
2022-10-18T10:30:39.799Z,100890.84
2022-10-18T10:33:34.813Z,100891.53
2022-10-18T10:36:19.396Z,100893.22
2022-10-18T10:39:06.418Z,100882.88
2022-10-18T10:41:42.824Z,100890.78
2022-10-18T10:44:20.471Z,100886.47
2022-10-18T10:46:55.070Z,100875.28
2022-10-18T10:49:43.950Z,100870.41
2022-10-18T10:52:28.366Z,100874.16
2022-10-18T10:55:23.540Z,100865.50
2022-10-18T10:57:58.913Z,100861.56
2022-10-18T11:00:46.940Z,100859.81
2022-10-18T11:03:28.917Z,100855.56
2022-10-18T11:06:04.797Z,100854.53
2022-10-18T11:08:43.757Z,100841.78
2022-10-18T11:11:28.078Z,100830.22
2022-10-18T11:14:27.134Z,100839.03
2022-10-18T11:17:14.805Z,100837.75
2022-10-18T11:20:03.847Z,100821.31
2022-10-18T11:22:44.546Z,100823.09
2022-10-18T11:25:24.443Z,100827.13
2022-10-18T11:28:05.963Z,100825.81
2022-10-18T11:30:56.674Z,100829.53
2022-10-18T11:34:07.091Z,100835.31
2022-10-18T11:36:45.488Z,100817.75
2022-10-18T11:39:37.634Z,100815.69
2022-10-18T11:42:20.948Z,100809.44
2022-10-18T11:45:13.561Z,100801.03
2022-10-18T11:47:56.035Z,100796.94
2022-10-18T11:50:37.025Z,100791.31
2022-10-18T11:53:20.214Z,100790.00
2022-10-18T11:56:06.708Z,100790.50
2022-10-18T11:58:54.778Z,100783.09
2022-10-18T12:01:36.995Z,100767.09
2022-10-18T12:04:24.862Z,100762.25
2022-10-18T12:07:04.168Z,100761.88
2022-10-18T12:09:41.308Z,100748.25
2022-10-18T12:12:19.527Z,100745.53
2022-10-18T12:14:59.026Z,100735.66
2022-10-18T12:17:46.121Z,100742.56
2022-10-18T12:20:36.685Z,100723.31
2022-10-18T12:23:15.956Z,100727.50
2022-10-18T12:25:53.996Z,100723.41
2022-10-18T12:28:35.486Z,100727.56
2022-10-18T12:31:20.373Z,100722.72
2022-10-18T12:33:58.648Z,100723.44
2022-10-18T12:36:58.727Z,100713.34
2022-10-18T12:39:45.146Z,100710.19
2022-10-18T12:42:37.399Z,100701.84
2022-10-18T12:45:26.745Z,100707.03
2022-10-18T12:48:06.907Z,100697.34
2022-10-18T12:50:47.326Z,100700.53
2022-10-18T12:53:30.105Z,100689.50
2022-10-18T12:56:38.323Z,100689.34
2022-10-18T12:59:51.460Z,100688.31
2022-10-18T13:02:37.286Z,100675.81
2022-10-18T13:05:52.923Z,100664.19
2022-10-18T13:08:43.739Z,100657.22
2022-10-18T13:11:36.962Z,100650.00
2022-10-18T13:15:13.446Z,100655.97
2022-10-18T13:17:57.973Z,100650.31
2022-10-18T13:20:45.809Z,100641.03
2022-10-18T13:23:39.177Z,100646.63
2022-10-18T13:26:26.780Z,100633.59
2022-10-18T13:29:07.419Z,100631.19
2022-10-18T13:31:45.837Z,100631.84
2022-10-18T13:34:33.274Z,100627.44
2022-10-18T13:37:20.154Z,100626.38
2022-10-18T13:40:24.877Z,100612.69
2022-10-18T13:43:29.759Z,100612.47
2022-10-18T13:46:07.370Z,100602.16
2022-10-18T13:48:49.740Z,100606.34
2022-10-18T13:51:59.525Z,100598.59
2022-10-18T13:55:05.789Z,100585.69
2022-10-18T13:57:59.336Z,100590.34
2022-10-18T14:00:49.148Z,100585.72
2022-10-18T14:04:02.639Z,100579.19
2022-10-18T14:06:41.421Z,100574.53
2022-10-18T14:09:25.924Z,100579.44
2022-10-18T14:12:24.365Z,100584.34
2022-10-18T14:15:08.234Z,100579.88
2022-10-18T14:17:48.400Z,100579.09
2022-10-18T14:20:32.726Z,100574.47
2022-10-18T14:23:17.139Z,100569.63
2022-10-18T14:25:50.675Z,100574.41
2022-10-18T14:28:36.154Z,100558.41
2022-10-18T14:31:14.970Z,100548.81
2022-10-18T14:33:57.569Z,100543.84
2022-10-18T14:36:42.617Z,100540.41
2022-10-18T14:39:22.374Z,100536.97
2022-10-18T14:41:57.410Z,100537.44
2022-10-18T14:44:33.160Z,100516.78
2022-10-18T14:47:17.736Z,100511.97
2022-10-18T14:49:58.252Z,100514.66
2022-10-18T14:52:35.819Z,100519.97
2022-10-18T14:55:19.652Z,100518.81
2022-10-18T14:57:55.558Z,100517.63
2022-10-18T15:00:36.531Z,100510.03
2022-10-18T15:03:15.521Z,100508.91
2022-10-18T15:05:59.645Z,100517.75
2022-10-18T15:08:38.073Z,100521.16
2022-10-18T15:11:14.985Z,100518.88
2022-10-18T15:13:53.624Z,100530.28
2022-10-18T15:16:30.449Z,100533.59
2022-10-18T15:19:07.359Z,100534.28
2022-10-18T15:22:07.981Z,100548.13
2022-10-18T15:25:04.430Z,100556.25
2022-10-18T15:30:27.664Z,100590.44
2022-10-18T15:33:03.065Z,100584.84
2022-10-18T15:35:38.454Z,100602.19
2022-10-18T15:38:18.701Z,100599.16
2022-10-18T15:40:52.554Z,100614.88
2022-10-18T15:43:39.487Z,100611.63
2022-10-18T15:46:32.256Z,100624.75
2022-10-18T15:49:19.266Z,100628.75
2022-10-18T15:52:17.253Z,100634.00
2022-10-18T15:54:52.159Z,100641.22
2022-10-18T15:57:29.078Z,100636.94
2022-10-18T16:00:19.737Z,100638.84
2022-10-18T16:02:53.309Z,100646.25
2022-10-18T16:05:27.360Z,100651.88
2022-10-18T16:08:00.475Z,100660.69
2022-10-18T16:10:35.572Z,100668.63
2022-10-18T16:13:09.062Z,100672.97
2022-10-18T16:15:42.261Z,100667.34
2022-10-18T16:18:18.264Z,100663.94
2022-10-18T16:20:51.887Z,100674.19
2022-10-18T16:23:28.771Z,100679.88
2022-10-18T16:26:03.941Z,100685.38
2022-10-18T16:28:40.216Z,100678.38
2022-10-18T16:31:17.756Z,100668.88
2022-10-18T16:33:52.838Z,100686.28
2022-10-18T16:36:29.225Z,100699.13
2022-10-18T16:39:07.892Z,100693.19
2022-10-18T16:41:42.964Z,100692.53
2022-10-18T16:44:17.361Z,100706.25
2022-10-18T16:46:53.961Z,100732.41
2022-10-18T16:49:29.121Z,100740.50
2022-10-18T16:52:04.699Z,100730.56
2022-10-18T16:54:38.479Z,100707.22
2022-10-18T16:57:13.888Z,100708.19
2022-10-18T16:59:47.620Z,100721.81
2022-10-18T17:02:21.249Z,100727.41
2022-10-18T17:04:54.965Z,100728.69
2022-10-18T17:07:28.450Z,100730.09
2022-10-18T17:10:01.795Z,100736.91
2022-10-18T17:12:36.915Z,100753.16
2022-10-18T17:15:11.604Z,100768.06
2022-10-18T17:17:46.178Z,100763.16
2022-10-18T17:20:23.702Z,100763.56
2022-10-18T17:22:57.400Z,100768.63
2022-10-18T17:28:31.311Z,100771.41
2022-10-18T17:31:08.240Z,100782.59
2022-10-18T17:33:42.213Z,100780.19
2022-10-18T17:36:17.053Z,100771.56
2022-10-18T17:38:53.792Z,100774.34
2022-10-18T17:41:28.941Z,100765.41
2022-10-18T17:44:07.317Z,100761.81
2022-10-18T17:46:42.392Z,100769.91
2022-10-18T17:49:17.064Z,100770.78
2022-10-18T17:51:50.657Z,100760.97
2022-10-18T17:54:24.079Z,100757.56
2022-10-18T17:57:02.679Z,100762.50
2022-10-18T17:59:40.946Z,100758.16
2022-10-18T18:02:14.605Z,100758.25
2022-10-18T18:04:51.114Z,100755.84
2022-10-18T18:07:24.813Z,100748.63
2022-10-18T18:09:58.478Z,100745.06
2022-10-18T18:12:32.106Z,100733.69
2022-10-18T18:15:09.704Z,100732.34
2022-10-18T18:17:56.607Z,100723.59
2022-10-18T18:20:31.262Z,100729.88
2022-10-18T18:23:04.914Z,100731.69
2022-10-18T18:25:38.176Z,100738.13
2022-10-18T18:28:11.734Z,100747.66
2022-10-18T18:30:46.775Z,100755.97
2022-10-18T18:33:20.311Z,100751.66
2022-10-18T18:35:57.504Z,100770.69
2022-10-18T18:38:31.077Z,100784.00
2022-10-18T18:41:08.104Z,100783.38
2022-10-18T18:43:43.191Z,100780.72
2022-10-18T18:46:18.338Z,100781.00
2022-10-18T18:48:53.702Z,100780.25
2022-10-18T18:51:30.153Z,100780.34
2022-10-18T18:54:04.111Z,100783.91
2022-10-18T18:56:38.300Z,100786.50
2022-10-18T18:59:14.298Z,100785.53
2022-10-18T19:01:49.427Z,100786.38
2022-10-18T19:04:23.050Z,100782.75
2022-10-18T19:06:56.324Z,100789.28
2022-10-18T19:09:30.030Z,100781.97
2022-10-18T19:12:03.699Z,100783.13
2022-10-18T19:14:36.978Z,100769.81
2022-10-18T19:17:12.055Z,100773.22
2022-10-18T19:19:45.760Z,100776.97
2022-10-18T19:22:19.397Z,100786.00
2022-10-18T19:24:53.008Z,100781.59
2022-10-18T19:27:26.369Z,100767.41
2022-10-18T19:29:59.973Z,100770.81
2022-10-18T19:32:37.355Z,100763.00
2022-10-18T19:35:11.102Z,100764.75
2022-10-18T19:37:44.721Z,100771.31
2022-10-18T19:40:18.097Z,100766.28
2022-10-18T19:42:51.653Z,100775.13
2022-10-18T19:45:27.585Z,100771.13
2022-10-18T19:48:02.821Z,100776.59
2022-10-18T19:50:36.914Z,100777.94
2022-10-18T19:53:10.613Z,100780.03
2022-10-18T19:55:44.234Z,100780.31
2022-10-18T19:58:17.474Z,100769.09
2022-10-18T20:00:54.115Z,100771.66
2022-10-18T20:03:30.645Z,100780.78
2022-10-18T20:06:05.189Z,100777.53
2022-10-18T20:08:39.970Z,100772.56
2022-10-18T20:11:15.817Z,100771.03
2022-10-18T20:13:50.342Z,100769.38
2022-10-18T20:16:28.448Z,100756.88
2022-10-18T20:19:08.944Z,100763.50
2022-10-18T20:21:44.782Z,100751.44
2022-10-18T20:24:18.858Z,100762.78
2022-10-18T20:29:31.824Z,100765.13
2022-10-18T20:32:12.558Z,100764.28
2022-10-18T20:34:50.502Z,100770.63
2022-10-18T20:37:26.454Z,100771.50
2022-10-18T20:40:00.375Z,100768.94
2022-10-18T20:42:34.169Z,100777.56
2022-10-18T20:45:08.910Z,100774.97
2022-10-18T20:47:44.209Z,100777.66
2022-10-18T20:50:21.931Z,100778.50
2022-10-18T20:52:55.650Z,100788.31
2022-10-18T20:55:30.622Z,100775.91
2022-10-18T20:58:10.287Z,100774.19
2022-10-18T21:00:46.845Z,100781.28
2022-10-18T21:03:20.625Z,100782.25
2022-10-18T21:05:55.669Z,100781.38
2022-10-18T21:08:32.221Z,100777.56
2022-10-18T21:11:07.090Z,100775.63
2022-10-18T21:13:42.111Z,100774.59
2022-10-18T21:16:15.709Z,100783.44
2022-10-18T21:18:49.012Z,100776.47
2022-10-18T21:21:26.186Z,100772.59
2022-10-18T21:24:06.885Z,100762.00
2022-10-18T21:26:41.973Z,100762.09
2022-10-18T21:29:21.662Z,100767.66
2022-10-18T21:31:59.420Z,100768.63
2022-10-18T21:34:33.209Z,100770.44
2022-10-18T21:37:08.266Z,100775.13
2022-10-18T21:39:44.697Z,100776.19
2022-10-18T21:42:18.462Z,100776.19
2022-10-18T21:44:52.125Z,100778.19
2022-10-18T21:47:25.978Z,100769.56
2022-10-18T21:49:59.760Z,100763.00
2022-10-18T21:52:34.801Z,100766.28
2022-10-18T21:55:09.522Z,100763.56
2022-10-18T21:57:43.226Z,100763.72
2022-10-18T22:00:17.062Z,100766.84
2022-10-18T22:02:50.642Z,100760.25
2022-10-18T22:05:27.338Z,100754.97
2022-10-18T22:08:05.615Z,100758.69
2022-10-18T22:10:39.383Z,100755.25
2022-10-18T22:13:12.686Z,100753.72
2022-10-18T22:15:48.894Z,100759.81
2022-10-18T22:18:22.982Z,100751.97
2022-10-18T22:20:56.565Z,100753.00
2022-10-18T22:23:35.175Z,100753.94
2022-10-18T22:26:11.412Z,100751.41
2022-10-18T22:28:50.535Z,100756.78
2022-10-18T22:31:28.563Z,100755.94
2022-10-18T22:34:04.449Z,100755.00
2022-10-18T22:36:38.461Z,100755.75
2022-10-18T22:39:19.110Z,100747.69
2022-10-18T22:41:56.823Z,100753.00
2022-10-18T22:44:34.547Z,100749.44
2022-10-18T22:47:08.333Z,100741.38
2022-10-18T22:49:41.637Z,100742.66
2022-10-18T22:52:18.082Z,100744.31
2022-10-18T22:54:56.134Z,100747.28
2022-10-18T22:57:30.758Z,100741.38
2022-10-18T23:00:05.495Z,100749.00
2022-10-18T23:02:42.004Z,100742.09
2022-10-18T23:05:15.724Z,100743.28
2022-10-18T23:07:49.485Z,100746.50
2022-10-18T23:10:26.806Z,100741.97
2022-10-18T23:13:00.357Z,100746.00
2022-10-18T23:15:35.153Z,100742.72
2022-10-18T23:18:08.809Z,100743.88
2022-10-18T23:20:43.191Z,100749.84
2022-10-18T23:23:16.666Z,100748.94
2022-10-18T23:25:55.130Z,100750.84
2022-10-18T23:28:28.789Z,100753.78
2022-10-18T23:31:07.141Z,100752.16
2022-10-18T23:33:41.527Z,100755.00
2022-10-18T23:36:15.455Z,100753.34
2022-10-18T23:38:52.582Z,100753.34
2022-10-18T23:41:27.785Z,100749.09
2022-10-18T23:44:02.522Z,100745.69
2022-10-18T23:46:36.088Z,100744.13
2022-10-18T23:49:09.575Z,100748.00
2022-10-18T23:51:43.074Z,100748.31
2022-10-18T23:54:16.553Z,100747.72
2022-10-18T23:56:51.519Z,100747.09
2022-10-18T23:59:25.006Z,100749.00
